Time;durP1;ratioP1;P1;durP2;ratioP2;P2;SDS_P1;SDS_P2;PMS_P1;PMS_P2;Temp;Humidity;BMP_temperature;BMP_pressure;BME280_temperature;BME280_humidity;BME280_pressure;Samples;Min_cycle;Max_cycle;Signal;HPM_P1;HPM_P2
2023/05/28 00:02:23;;;;;;;25.95;13.80;;;;;;;13.84;73.18;101913.16;5051911;28;20029;-52
2023/05/28 00:04:49;;;;;;;27.15;14.98;;;;;;;13.78;73.31;101919.94;5049721;28;20029;-50
2023/05/28 00:07:14;;;;;;;26.42;14.02;;;;;;;13.73;73.95;101918.91;5050206;28;20029;-50
2023/05/28 00:09:41;;;;;;;26.63;15.05;;;;;;;13.63;73.61;101912.66;5051973;28;20029;-49
2023/05/28 00:12:07;;;;;;;28.02;15.50;;;;;;;13.65;73.99;101907.63;5051977;28;20024;-50
2023/05/28 00:14:32;;;;;;;28.10;14.38;;;;;;;13.67;74.03;101903.41;5051538;28;20481;-50
2023/05/28 00:16:58;;;;;;;26.23;13.75;;;;;;;13.65;74.42;101910.41;5051679;28;20043;-48
2023/05/28 00:19:23;;;;;;;25.55;13.65;;;;;;;13.70;73.89;101907.53;5051663;28;20500;-50
2023/05/28 00:21:48;;;;;;;26.13;13.77;;;;;;;13.66;73.82;101906.50;5051708;28;20035;-50
2023/05/28 00:24:14;;;;;;;24.48;14.27;;;;;;;13.57;74.18;101903.56;5051712;28;20044;-50
2023/05/28 00:26:39;;;;;;;27.58;15.40;;;;;;;13.44;75.15;101904.31;5051664;28;20028;-47
2023/05/28 00:29:05;;;;;;;25.67;14.02;;;;;;;13.36;76.01;101911.34;5051578;28;20040;-47
2023/05/28 00:31:30;;;;;;;26.83;14.40;;;;;;;13.22;76.19;101912.09;5033635;28;20518;-49
2023/05/28 00:33:56;;;;;;;28.70;14.80;;;;;;;13.25;76.73;101905.91;5051483;28;20033;-50
2023/05/28 00:36:21;;;;;;;29.50;16.13;;;;;;;13.15;76.52;101906.03;5051357;28;20021;-52
2023/05/28 00:38:47;;;;;;;29.95;15.13;;;;;;;13.22;76.75;101916.81;5050078;28;20373;-51
2023/05/28 00:41:12;;;;;;;28.98;15.05;;;;;;;13.18;76.80;101911.03;5051727;28;20027;-49
2023/05/28 00:43:38;;;;;;;26.40;14.82;;;;;;;13.06;77.38;101925.34;5051435;28;20043;-48
2023/05/28 00:46:06;;;;;;;25.83;13.95;;;;;;;13.05;77.51;101933.94;5051595;28;20104;-48
2023/05/28 00:48:31;;;;;;;25.90;13.80;;;;;;;12.99;78.38;101932.38;5051432;28;20121;-49
2023/05/28 00:50:58;;;;;;;30.88;14.70;;;;;;;12.87;79.04;101924.47;5051351;28;20025;-51
2023/05/28 00:53:25;;;;;;;27.05;14.65;;;;;;;12.78;79.03;101921.50;5051496;28;20029;-51
2023/05/28 00:55:50;;;;;;;25.25;14.18;;;;;;;12.77;79.02;101914.28;5051440;28;20473;-51
2023/05/28 00:58:16;;;;;;;26.27;13.52;;;;;;;12.74;79.78;101924.03;5051314;28;20133;-49
2023/05/28 01:00:43;;;;;;;27.08;13.50;;;;;;;12.64;80.32;101921.38;5051332;28;20029;-52
2023/05/28 01:03:09;;;;;;;24.30;13.68;;;;;;;12.67;80.43;101922.72;5051223;28;20105;-51
2023/05/28 01:05:35;;;;;;;26.23;13.40;;;;;;;12.66;80.36;101910.00;5052339;28;20056;-51
2023/05/28 01:08:06;;;;;;;22.60;13.40;;;;;;;12.55;81.10;101906.47;5054546;28;20078;-54
2023/05/28 01:10:32;;;;;;;27.48;13.02;;;;;;;12.58;80.63;101903.13;5052254;28;20053;-48
2023/05/28 01:13:00;;;;;;;25.95;13.38;;;;;;;12.42;81.39;101911.59;5055040;28;20035;-50
2023/05/28 01:15:25;;;;;;;27.42;13.70;;;;;;;12.45;81.68;101915.75;5054987;28;20036;-49
2023/05/28 01:17:57;;;;;;;24.40;12.75;;;;;;;12.40;81.72;101915.78;5054895;28;20029;-52
2023/05/28 01:20:23;;;;;;;24.80;13.82;;;;;;;12.39;81.31;101905.78;5054714;28;20067;-53
2023/05/28 01:22:55;;;;;;;25.73;13.00;;;;;;;12.28;82.16;101903.13;5054917;28;20485;-50
2023/05/28 01:25:21;;;;;;;25.65;13.00;;;;;;;12.28;82.04;101905.06;5054589;28;20427;-48
2023/05/28 01:27:47;;;;;;;24.45;12.85;;;;;;;12.22;82.84;101914.56;5054651;28;20029;-51
2023/05/28 01:30:12;;;;;;;24.52;12.65;;;;;;;12.17;82.15;101918.22;5054313;28;20055;-50
2023/05/28 01:32:40;;;;;;;25.08;12.98;;;;;;;12.08;83.50;101917.19;5054322;28;20021;-48
2023/05/28 01:35:08;;;;;;;23.98;13.60;;;;;;;12.05;84.20;101910.25;5054142;28;20120;-47
2023/05/28 01:37:36;;;;;;;26.98;13.50;;;;;;;11.98;83.62;101912.53;5054501;28;20033;-51
2023/05/28 01:40:02;;;;;;;24.33;12.88;;;;;;;11.94;83.96;101917.81;5054411;28;20036;-50
2023/05/28 01:42:29;;;;;;;24.27;12.82;;;;;;;11.95;83.57;101915.88;5053341;28;20402;-49
2023/05/28 01:44:56;;;;;;;26.10;13.07;;;;;;;11.85;84.72;101920.34;5053975;28;20068;-47
2023/05/28 01:47:23;;;;;;;26.02;13.23;;;;;;;11.87;84.63;101914.53;5054045;28;20036;-51
2023/05/28 01:49:48;;;;;;;22.17;12.30;;;;;;;11.82;84.43;101915.41;5054432;28;20033;-50
2023/05/28 01:52:14;;;;;;;25.80;12.48;;;;;;;11.81;84.24;101921.22;5054127;28;20450;-49
2023/05/28 01:54:40;;;;;;;26.15;12.77;;;;;;;11.73;84.24;101911.59;5053828;28;20029;-48
2023/05/28 01:57:06;;;;;;;24.50;12.60;;;;;;;11.66;84.82;101914.69;5053968;28;20131;-50
2023/05/28 01:59:31;;;;;;;24.00;12.23;;;;;;;11.56;85.22;101909.19;5053964;28;20033;-50
2023/05/28 02:01:57;;;;;;;23.38;12.60;;;;;;;11.57;84.89;101908.09;5053668;28;20033;-49
2023/05/28 02:04:22;;;;;;;24.80;12.20;;;;;;;11.60;85.34;101901.13;5036073;28;20082;-50
2023/05/28 02:06:47;;;;;;;24.42;11.82;;;;;;;11.57;85.12;101908.09;5054274;28;20360;-51
2023/05/28 02:09:13;;;;;;;25.13;12.30;;;;;;;11.59;85.36;101899.47;5046516;28;20086;-49
2023/05/28 02:11:38;;;;;;;23.52;11.73;;;;;;;11.54;85.06;101903.13;5053813;28;20033;-49
2023/05/28 02:14:06;;;;;;;23.05;12.10;;;;;;;11.46;85.53;101898.19;5053739;28;20039;-48
2023/05/28 02:16:31;;;;;;;27.00;12.52;;;;;;;11.42;85.74;101894.34;5053418;28;20029;-48
2023/05/28 02:18:58;;;;;;;23.30;11.73;;;;;;;11.35;86.03;101889.94;5053708;28;20032;-51
2023/05/28 02:21:24;;;;;;;25.80;12.07;;;;;;;11.29;86.37;101885.53;5053663;28;20035;-51
2023/05/28 02:23:50;;;;;;;24.33;12.85;;;;;;;11.26;86.61;101883.31;5053557;28;20036;-50
2023/05/28 02:26:16;;;;;;;25.92;13.05;;;;;;;11.20;87.03;101879.75;5053482;28;20032;-49
2023/05/28 02:28:45;;;;;;;26.15;12.68;;;;;;;11.16;87.24;101878.69;5053429;28;20077;-50
2023/05/28 02:31:10;;;;;;;22.90;11.80;;;;;;;11.16;87.00;101886.16;5053344;28;20028;-50
2023/05/28 02:33:41;;;;;;;24.38;12.20;;;;;;;11.17;87.07;101883.13;5053168;28;20028;-52
2023/05/28 02:36:08;;;;;;;23.92;12.20;;;;;;;11.15;87.59;101881.72;5053205;28;20025;-49
2023/05/28 02:38:33;;;;;;;22.52;12.02;;;;;;;11.13;87.49;101890.31;5053617;28;20043;-51
2023/05/28 02:40:59;;;;;;;23.45;12.20;;;;;;;11.09;87.96;101886.47;5053151;28;20099;-49
2023/05/28 02:43:24;;;;;;;24.75;11.95;;;;;;;11.06;88.35;101887.03;5053251;28;20029;-50
2023/05/28 02:45:49;;;;;;;24.35;12.15;;;;;;;11.11;88.23;101888.97;5052892;28;20072;-49
2023/05/28 02:48:15;;;;;;;21.80;11.73;;;;;;;11.11;87.92;101888.97;5053232;28;20021;-54
2023/05/28 02:50:40;;;;;;;25.05;12.27;;;;;;;11.12;87.98;101891.44;5052975;28;20198;-48
2023/05/28 02:53:05;;;;;;;25.23;12.00;;;;;;;11.10;88.44;101898.38;5052155;28;20021;-48
2023/05/28 02:55:30;;;;;;;23.05;12.07;;;;;;;11.10;87.93;101885.34;5052267;28;20029;-50
2023/05/28 02:57:56;;;;;;;23.48;12.10;;;;;;;11.00;88.83;101896.50;5052479;28;20032;-49
2023/05/28 03:00:21;;;;;;;25.30;12.43;;;;;;;11.01;88.61;101904.50;5052332;28;20431;-51
2023/05/28 03:02:47;;;;;;;24.25;11.90;;;;;;;10.99;88.89;101900.38;5052658;28;20021;-49
2023/05/28 03:05:12;;;;;;;26.33;12.25;;;;;;;10.92;89.30;101893.19;5052775;28;20025;-47
2023/05/28 03:07:37;;;;;;;25.25;12.10;;;;;;;10.89;89.98;101898.44;5052692;28;20060;-48
2023/05/28 03:10:04;;;;;;;25.20;12.30;;;;;;;10.78;90.80;101894.91;5045506;28;20024;-49
2023/05/28 03:12:29;;;;;;;24.55;12.32;;;;;;;10.72;91.37;101891.31;5052426;28;20468;-49
2023/05/28 03:14:54;;;;;;;24.67;12.27;;;;;;;10.73;91.23;101904.03;5052368;28;20090;-46
2023/05/28 03:17:20;;;;;;;26.58;12.55;;;;;;;10.71;91.51;101894.38;5045594;23;20013;-51
2023/05/28 03:19:45;;;;;;;24.05;12.70;;;;;;;10.67;91.72;101896.88;5063532;28;20041;-49
2023/05/28 03:22:10;;;;;;;25.85;12.15;;;;;;;10.63;92.48;101889.41;5065924;28;20039;-49
2023/05/28 03:24:35;;;;;;;26.27;13.15;;;;;;;10.59;92.35;101891.91;5052256;28;20052;-53
2023/05/28 03:27:02;;;;;;;26.17;12.80;;;;;;;10.52;94.05;101900.50;5063408;28;20029;-50
2023/05/28 03:29:27;;;;;;;28.30;12.82;;;;;;;10.50;93.85;101897.19;5071361;28;20031;-49
2023/05/28 03:31:52;;;;;;;25.55;12.50;;;;;;;10.51;93.17;101895.25;5072027;28;20016;-48
2023/05/28 03:34:18;;;;;;;26.08;12.07;;;;;;;10.52;93.43;101899.66;5071625;28;20031;-51
2023/05/28 03:36:43;;;;;;;24.75;12.10;;;;;;;10.46;nan;101887.78;5071909;28;20024;-50
2023/05/28 03:39:09;;;;;;;26.75;12.63;;;;;;;10.40;95.14;101899.97;5072078;28;20031;-51
2023/05/28 03:41:36;;;;;;;26.10;12.68;;;;;;;10.40;95.37;101898.03;5072171;28;20033;-48
2023/05/28 03:44:02;;;;;;;23.63;12.27;;;;;;;10.41;95.69;101904.41;5072028;28;20060;-49
2023/05/28 03:46:27;;;;;;;23.75;11.85;;;;;;;10.43;95.38;101902.19;5072038;28;20024;-51
2023/05/28 03:48:52;;;;;;;24.30;12.18;;;;;;;10.35;96.51;101902.69;5070617;28;20448;-47
2023/05/28 03:51:18;;;;;;;24.77;12.23;;;;;;;10.40;96.37;101908.28;5071909;28;20032;-50
2023/05/28 03:53:43;;;;;;;26.67;12.23;;;;;;;10.35;96.99;101906.31;5057766;28;20377;-49
2023/05/28 03:56:08;;;;;;;26.73;12.55;;;;;;;10.39;96.45;101896.34;5071678;28;20025;-49
2023/05/28 03:58:34;;;;;;;27.15;13.13;;;;;;;10.42;96.16;101901.34;5071583;28;20033;-48
2023/05/28 04:01:00;;;;;;;24.20;12.55;;;;;;;10.51;96.34;101907.16;5071503;28;20112;-49
2023/05/28 04:03:25;;;;;;;27.10;13.20;;;;;;;10.48;96.73;101904.94;5069635;28;20036;-50
2023/05/28 04:05:50;;;;;;;25.40;12.68;;;;;;;10.49;96.71;101906.59;5069158;28;20029;-49
2023/05/28 04:08:15;;;;;;;26.55;12.93;;;;;;;10.50;96.84;101905.50;5071654;28;20027;-50
2023/05/28 04:10:41;;;;;;;27.70;12.82;;;;;;;10.50;97.34;101908.25;5071840;28;20444;-49
2023/05/28 04:13:07;;;;;;;26.08;12.68;;;;;;;10.51;97.70;101914.59;5071303;28;20116;-51
2023/05/28 04:15:32;;;;;;;24.63;12.75;;;;;;;10.51;97.81;101915.44;5072150;28;20111;-50
2023/05/28 04:17:57;;;;;;;24.25;12.95;;;;;;;10.53;98.39;101917.94;5071388;28;20132;-49
2023/05/28 04:20:23;;;;;;;26.92;13.23;;;;;;;10.49;99.52;101917.66;5071746;28;20568;-48
2023/05/28 04:22:48;;;;;;;24.33;12.75;;;;;;;10.52;100.00;101922.66;5071409;28;20021;-50
2023/05/28 04:25:13;;;;;;;25.38;12.93;;;;;;;10.61;98.97;101922.88;5071490;28;20038;-48
2023/05/28 04:27:40;;;;;;;28.33;13.63;;;;;;;10.61;99.77;101918.19;5090382;28;20517;-49
2023/05/28 04:30:08;;;;;;;27.05;12.88;;;;;;;10.71;98.90;101919.28;5091585;28;20030;-48
2023/05/28 04:32:33;;;;;;;26.20;13.50;;;;;;;10.83;99.31;101928.09;5091582;28;20042;-49
2023/05/28 04:35:03;;;;;;;28.13;13.02;;;;;;;10.85;99.38;101930.59;5091571;28;20099;-47
2023/05/28 04:37:28;;;;;;;27.52;13.10;;;;;;;10.91;99.16;101924.72;5091432;28;20525;-48
2023/05/28 04:39:54;;;;;;;26.05;13.50;;;;;;;10.94;99.73;101928.91;5091413;28;20028;-48
2023/05/28 04:42:19;;;;;;;26.02;13.25;;;;;;;11.02;99.45;101925.53;5095696;28;20035;-51
2023/05/28 04:44:44;;;;;;;24.95;12.63;;;;;;;11.12;98.83;101923.84;5095691;28;20062;-46
2023/05/28 04:47:11;;;;;;;28.10;15.02;;;;;;;11.18;99.24;101928.25;5095420;28;20032;-51
2023/05/28 04:49:37;;;;;;;27.88;13.70;;;;;;;11.16;100.00;101933.22;5095513;28;20068;-48
2023/05/28 04:52:02;;;;;;;28.50;15.30;;;;;;;11.16;99.84;101923.00;5095069;28;20115;-48
2023/05/28 04:54:28;;;;;;;25.75;13.52;;;;;;;11.23;99.91;101929.06;5095234;28;20072;-51
2023/05/28 04:56:53;;;;;;;24.83;13.07;;;;;;;11.30;99.40;101930.69;5095483;28;20036;-49
2023/05/28 04:59:19;;;;;;;25.73;13.40;;;;;;;11.41;98.70;101932.28;5095597;28;20120;-50
2023/05/28 05:01:44;;;;;;;31.65;14.73;;;;;;;11.44;99.29;101925.34;5095638;28;20082;-50
2023/05/28 05:04:10;;;;;;;28.63;13.60;;;;;;;11.55;98.87;101926.94;5094967;28;20547;-50
2023/05/28 05:06:35;;;;;;;25.30;13.25;;;;;;;11.61;98.55;101928.59;5094775;28;20032;-50
2023/05/28 05:09:01;;;;;;;26.58;14.20;;;;;;;11.78;97.81;101925.41;5091383;28;20020;-48
2023/05/28 05:11:26;;;;;;;29.15;14.10;;;;;;;11.88;97.71;101930.06;5095295;28;20099;-48
2023/05/28 05:13:52;;;;;;;26.52;13.98;;;;;;;11.98;97.03;101929.19;5095391;28;20459;-49
2023/05/28 05:16:20;;;;;;;26.27;13.75;;;;;;;12.06;96.43;101934.09;5095209;28;20038;-51
2023/05/28 05:18:46;;;;;;;27.85;14.48;;;;;;;12.13;96.30;101936.56;5094686;28;20051;-50
2023/05/28 05:21:12;;;;;;;26.48;14.27;;;;;;;12.22;96.09;101929.25;5094857;28;20016;-49
2023/05/28 05:23:38;;;;;;;26.77;14.15;;;;;;;12.32;95.95;101926.41;5094578;28;20032;-49
2023/05/28 05:26:04;;;;;;;28.35;14.15;;;;;;;12.43;95.21;101938.22;5095256;28;20103;-48
2023/05/28 05:28:29;;;;;;;26.17;15.05;;;;;;;12.53;94.97;101942.84;5094463;28;20028;-51
2023/05/28 05:30:54;;;;;;;27.35;14.50;;;;;;;12.67;94.14;101947.69;5094943;28;20026;-51
2023/05/28 05:33:20;;;;;;;25.95;13.77;;;;;;;12.77;93.29;101942.03;5094706;28;20364;-47
2023/05/28 05:35:45;;;;;;;25.95;13.38;;;;;;;12.84;92.37;101942.53;5093395;28;20024;-50
2023/05/28 05:38:10;;;;;;;24.70;13.15;;;;;;;12.91;91.90;101940.25;5094618;28;20374;-51
2023/05/28 05:40:36;;;;;;;26.40;13.20;;;;;;;12.98;91.18;101947.38;5094678;28;20039;-54
2023/05/28 05:43:01;;;;;;;25.55;13.20;;;;;;;13.06;90.72;101950.34;5090046;28;20028;-51
2023/05/28 05:45:26;;;;;;;25.90;13.18;;;;;;;13.20;90.08;101964.34;5082676;28;20118;-47
2023/05/28 05:47:52;;;;;;;26.50;14.23;;;;;;;13.27;90.23;101962.03;5085543;28;20016;-50
2023/05/28 05:50:17;;;;;;;27.38;13.43;;;;;;;13.46;89.98;101955.69;5079968;28;20035;-49
2023/05/28 05:52:42;;;;;;;28.50;14.20;;;;;;;13.60;88.77;101950.22;5079214;28;20017;-51
2023/05/28 05:55:08;;;;;;;26.67;13.80;;;;;;;13.78;88.60;101954.16;5085125;28;20080;-48
2023/05/28 05:57:36;;;;;;;28.05;13.70;;;;;;;13.97;86.90;101951.34;5085226;28;20110;-50
2023/05/28 06:00:03;;;;;;;26.08;14.10;;;;;;;14.12;85.46;101955.03;5084576;28;20067;-46
2023/05/28 06:02:29;;;;;;;23.98;13.50;;;;;;;14.24;84.70;101954.53;5082734;28;20443;-48
2023/05/28 06:04:54;;;;;;;25.63;13.13;;;;;;;14.42;83.08;101950.88;5081973;28;20028;-51
2023/05/28 06:07:20;;;;;;;26.38;13.50;;;;;;;14.50;83.12;101958.53;5082748;28;20024;-48
2023/05/28 06:09:45;;;;;;;26.27;13.30;;;;;;;14.53;82.34;101948.75;5082744;28;20024;-51
2023/05/28 06:12:10;;;;;;;24.38;12.82;;;;;;;14.68;81.39;101953.22;5079940;28;20060;-51
2023/05/28 06:14:36;;;;;;;25.83;13.30;;;;;;;14.77;80.56;101948.59;5073851;28;20183;-47
2023/05/28 06:17:02;;;;;;;25.90;13.18;;;;;;;14.95;79.78;101954.38;5073920;28;20400;-47
2023/05/28 06:19:29;;;;;;;26.23;13.15;;;;;;;15.09;79.69;101957.19;5073858;28;20048;-50
2023/05/28 06:21:54;;;;;;;25.08;13.15;;;;;;;15.22;77.93;101949.94;5079438;28;20016;-50
2023/05/28 06:24:19;;;;;;;26.40;13.00;;;;;;;15.37;76.99;101949.63;5083681;28;20032;-48
2023/05/28 06:26:45;;;;;;;25.00;12.70;;;;;;;15.63;76.85;101954.63;5080242;28;20048;-50
2023/05/28 06:29:10;;;;;;;24.30;12.90;;;;;;;15.86;74.98;101946.34;5073761;28;20024;-46
2023/05/28 06:31:36;;;;;;;24.77;12.90;;;;;;;15.98;73.65;101943.78;5073196;28;20020;-50
2023/05/28 06:34:02;;;;;;;24.17;12.75;;;;;;;16.13;74.00;101942.59;5084296;28;20016;-48
2023/05/28 06:36:28;;;;;;;24.95;12.77;;;;;;;16.36;72.99;101940.59;5093511;28;20040;-48
2023/05/28 06:38:53;;;;;;;23.73;12.15;;;;;;;16.63;71.55;101941.56;5093148;28;20024;-48
2023/05/28 06:41:18;;;;;;;25.27;12.32;;;;;;;16.81;69.88;101950.88;5092986;28;20032;-49
2023/05/28 06:43:44;;;;;;;23.95;12.23;;;;;;;17.02;68.45;101943.91;5093391;28;20023;-47
2023/05/28 06:46:09;;;;;;;24.77;12.43;;;;;;;17.19;67.80;101946.78;5089837;28;20039;-46
2023/05/28 06:48:35;;;;;;;23.88;12.27;;;;;;;17.29;67.03;101938.06;5093388;28;20024;-50
2023/05/28 06:51:00;;;;;;;24.67;12.18;;;;;;;17.25;66.60;101941.84;5093055;28;20028;-52
2023/05/28 06:53:25;;;;;;;24.45;12.25;;;;;;;17.22;66.74;101940.50;5093098;28;20437;-52
2023/05/28 06:55:51;;;;;;;25.05;11.65;;;;;;;17.22;66.28;101942.50;5093550;28;20119;-51
2023/05/28 06:58:16;;;;;;;24.42;12.32;;;;;;;17.29;65.80;101954.84;5093459;28;20024;-51
2023/05/28 07:00:41;;;;;;;23.13;12.35;;;;;;;17.30;65.17;101942.50;5091735;28;20518;-50
2023/05/28 07:03:08;;;;;;;24.13;12.88;;;;;;;17.29;64.75;101943.66;5092037;28;20032;-47
2023/05/28 07:05:35;;;;;;;24.33;11.93;;;;;;;17.28;63.87;101941.19;5093291;28;20028;-48
2023/05/28 07:08:01;;;;;;;23.60;11.82;;;;;;;17.32;65.22;101945.00;5092655;28;20467;-49
2023/05/28 07:10:26;;;;;;;22.98;11.57;;;;;;;17.37;64.69;101955.22;5093116;28;20043;-50
2023/05/28 07:12:51;;;;;;;21.17;11.35;;;;;;;17.36;62.90;101945.97;5092901;28;20458;-50
2023/05/28 07:15:17;;;;;;;24.15;12.10;;;;;;;17.38;64.07;101949.28;5091497;28;20024;-48
2023/05/28 07:17:42;;;;;;;23.65;12.23;;;;;;;17.42;63.76;101949.44;5092861;28;20506;-48
2023/05/28 07:20:08;;;;;;;24.80;11.65;;;;;;;17.50;64.02;101950.63;5090026;28;20096;-48
2023/05/28 07:22:33;;;;;;;22.23;11.68;;;;;;;17.55;64.13;101953.25;5087001;28;20028;-49
2023/05/28 07:24:59;;;;;;;23.00;11.52;;;;;;;17.63;62.01;101960.81;5092700;28;20127;-48
2023/05/28 07:27:24;;;;;;;22.98;10.82;;;;;;;17.56;61.88;101964.13;5092575;28;20425;-48
2023/05/28 07:29:50;;;;;;;22.58;11.20;;;;;;;17.57;61.21;101962.94;5092331;28;20687;-49
2023/05/28 07:32:15;;;;;;;22.13;11.18;;;;;;;17.61;61.49;101963.16;5092813;28;20040;-49
2023/05/28 07:34:41;;;;;;;22.98;11.07;;;;;;;17.79;62.62;101963.97;5092638;28;20031;-48
2023/05/28 07:37:06;;;;;;;21.30;10.25;;;;;;;17.94;61.83;101968.25;5092663;28;20023;-52
2023/05/28 07:39:32;;;;;;;24.83;11.45;;;;;;;18.04;60.35;101959.56;5092588;28;20154;-50
2023/05/28 07:41:57;;;;;;;23.10;11.30;;;;;;;18.17;60.32;101954.13;5092627;28;20506;-46
2023/05/28 07:44:23;;;;;;;22.33;10.65;;;;;;;18.34;58.97;101961.66;5090430;28;20391;-50
2023/05/28 07:46:48;;;;;;;21.42;10.73;;;;;;;18.48;58.90;101964.25;5090845;28;20114;-47
2023/05/28 07:49:13;;;;;;;21.38;10.82;;;;;;;18.61;57.46;101963.25;5092335;28;20076;-47
2023/05/28 07:51:39;;;;;;;23.02;11.35;;;;;;;18.54;57.23;101960.13;5091208;28;20020;-51
2023/05/28 07:54:04;;;;;;;23.08;10.57;;;;;;;18.64;57.17;101964.56;5090996;28;20443;-50
2023/05/28 07:56:29;;;;;;;22.63;10.80;;;;;;;18.73;57.37;101958.94;5091091;28;20032;-52
2023/05/28 07:58:55;;;;;;;22.30;10.20;;;;;;;18.86;57.72;101958.72;5090873;28;20383;-49
2023/05/28 08:01:21;;;;;;;20.38;10.20;;;;;;;19.01;57.86;101957.34;5089471;28;20442;-50
2023/05/28 08:03:51;;;;;;;23.80;10.57;;;;;;;19.15;56.77;101956.28;5090978;28;20028;-50
2023/05/28 08:06:18;;;;;;;21.15;10.13;;;;;;;19.24;54.95;101959.06;5090919;28;20039;-48
2023/05/28 08:08:43;;;;;;;21.38;10.70;;;;;;;19.28;56.48;101954.41;5090986;28;20047;-51
2023/05/28 08:11:10;;;;;;;22.00;10.63;;;;;;;19.47;57.86;101963.19;5091215;28;20024;-50
2023/05/28 08:13:36;;;;;;;21.60;11.40;;;;;;;19.44;59.09;101957.44;5090940;28;20024;-50
2023/05/28 08:16:02;;;;;;;22.45;11.45;;;;;;;19.51;60.35;101949.28;5090792;28;20043;-50
2023/05/28 08:18:27;;;;;;;20.35;10.90;;;;;;;19.50;58.84;101956.09;5090902;28;20055;-47
2023/05/28 08:20:53;;;;;;;22.88;11.48;;;;;;;19.39;57.65;101954.84;5090855;28;20028;-47
2023/05/28 08:23:18;;;;;;;24.55;12.23;;;;;;;19.44;57.82;101951.81;5090720;28;20063;-46
2023/05/28 08:25:43;;;;;;;22.92;10.80;;;;;;;19.36;55.65;101961.13;5090816;28;20104;-49
2023/05/28 08:28:09;;;;;;;22.90;11.20;;;;;;;19.24;56.55;101957.06;5090881;28;20028;-52
2023/05/28 08:30:35;;;;;;;22.38;10.48;;;;;;;19.35;58.36;101960.31;5089449;28;20059;-52
2023/05/28 08:33:00;;;;;;;23.15;11.65;;;;;;;19.44;56.92;101955.47;5090831;28;20052;-47
2023/05/28 08:35:26;;;;;;;23.17;10.90;;;;;;;19.34;54.69;101953.06;5076121;28;20064;-52
2023/05/28 08:37:51;;;;;;;22.77;11.10;;;;;;;19.32;56.46;101952.56;5070691;28;20048;-48
2023/05/28 08:40:17;;;;;;;22.67;11.27;;;;;;;19.37;57.28;101960.78;5066560;28;20366;-49
2023/05/28 08:42:43;;;;;;;23.83;11.25;;;;;;;19.47;57.12;101960.38;5069245;28;20183;-53
2023/05/28 08:45:09;;;;;;;22.45;10.63;;;;;;;19.69;57.27;101954.81;5070443;28;20037;-51
2023/05/28 08:47:36;;;;;;;23.38;10.95;;;;;;;19.68;56.61;101953.97;5070587;28;20070;-49
2023/05/28 08:50:05;;;;;;;23.23;11.63;;;;;;;19.75;55.73;101948.63;5070499;28;20445;-51
2023/05/28 08:52:32;;;;;;;22.02;9.95;;;;;;;20.01;55.28;101950.44;5070416;28;20020;-52
2023/05/28 08:55:00;;;;;;;22.45;10.68;;;;;;;20.15;54.99;101943.69;5070444;28;20111;-52
2023/05/28 08:57:28;;;;;;;23.17;10.65;;;;;;;20.39;54.50;101937.31;5070518;28;20024;-50
2023/05/28 08:59:54;;;;;;;21.30;10.10;;;;;;;20.65;52.50;101931.41;5070186;28;20028;-48
2023/05/28 09:02:24;;;;;;;20.52;9.73;;;;;;;20.84;50.59;101944.13;5070426;28;20101;-49
2023/05/28 09:04:50;;;;;;;21.05;9.45;;;;;;;20.82;48.51;101933.22;5070069;28;20389;-48
2023/05/28 09:07:15;;;;;;;19.30;9.43;;;;;;;20.77;48.30;101932.63;5070057;28;20055;-49
2023/05/28 09:09:41;;;;;;;21.38;9.38;;;;;;;20.69;46.75;101940.78;5085092;28;20114;-51
2023/05/28 09:12:11;;;;;;;20.35;9.10;;;;;;;20.68;47.57;101935.50;5076850;28;20135;-50
2023/05/28 09:14:39;;;;;;;19.92;8.98;;;;;;;20.88;47.34;101940.25;5076070;28;20036;-48
2023/05/28 09:17:04;;;;;;;20.48;8.90;;;;;;;21.04;46.61;101934.75;5090186;28;20024;-50
2023/05/28 09:19:31;;;;;;;20.88;9.55;;;;;;;21.11;46.36;101939.75;5090175;28;20447;-49
2023/05/28 09:21:57;;;;;;;21.50;9.88;;;;;;;21.25;46.57;101938.59;5090078;28;20671;-49
2023/05/28 09:24:26;;;;;;;21.33;9.05;;;;;;;21.40;46.49;101943.50;5089797;28;20090;-51
2023/05/28 09:26:55;;;;;;;22.13;9.48;;;;;;;21.50;45.33;101930.94;5091540;28;20052;-48
2023/05/28 09:29:22;;;;;;;20.52;9.02;;;;;;;21.65;45.02;101935.84;5093927;28;20097;-49
2023/05/28 09:31:59;;;;;;;18.25;8.85;;;;;;;21.85;45.96;101930.38;5094006;28;20089;-49
2023/05/28 09:34:28;;;;;;;19.77;9.10;;;;;;;21.93;44.55;101926.59;5093767;28;20039;-47
2023/05/28 09:37:02;;;;;;;21.27;9.55;;;;;;;22.08;44.89;101927.81;5092438;28;20028;-50
2023/05/28 09:39:28;;;;;;;19.88;9.45;;;;;;;22.07;44.83;101928.19;5089522;28;20032;-49
2023/05/28 09:42:03;;;;;;;20.77;9.25;;;;;;;21.93;44.70;101931.41;5092229;28;20034;-50
2023/05/28 09:44:33;;;;;;;19.83;9.35;;;;;;;21.88;44.84;101929.69;5093297;28;20468;-51
2023/05/28 09:46:58;;;;;;;20.85;9.45;;;;;;;22.00;44.62;101931.63;5093360;28;20024;-50
2023/05/28 09:49:25;;;;;;;20.65;9.40;;;;;;;22.05;43.82;101937.00;5093397;28;20467;-48
2023/05/28 09:51:52;;;;;;;21.33;9.48;;;;;;;22.28;43.13;101922.31;5091688;28;20472;-47
2023/05/28 09:54:19;;;;;;;22.20;9.48;;;;;;;22.29;43.51;101910.69;5092016;28;20070;-48
2023/05/28 09:56:47;;;;;;;20.75;9.85;;;;;;;22.43;43.75;101909.47;5091934;28;20106;-50
2023/05/28 09:59:15;;;;;;;18.63;9.10;;;;;;;22.46;43.08;101922.00;5081358;28;20165;-53
2023/05/28 10:02:18;;;;;;;21.02;8.77;;;;;;;22.40;42.78;101908.19;5071579;28;20036;-50
2023/05/28 10:04:45;;;;;;;20.25;9.07;;;;;;;22.46;40.38;101914.38;5071737;28;20086;-53
2023/05/28 10:07:11;;;;;;;18.42;8.80;;;;;;;22.63;40.06;101904.72;5068518;28;20028;-50
2023/05/28 10:09:40;;;;;;;20.58;9.30;;;;;;;22.83;40.35;101908.47;5073355;28;20070;-51
2023/05/28 10:12:12;;;;;;;20.73;8.48;;;;;;;22.92;40.39;101918.75;5073051;28;20032;-48
2023/05/28 10:14:39;;;;;;;19.25;8.82;;;;;;;22.81;39.74;101918.50;5073789;28;20098;-48
2023/05/28 10:17:07;;;;;;;19.88;8.95;;;;;;;22.58;39.09;101908.63;5072784;28;20368;-47
2023/05/28 10:19:34;;;;;;;18.88;8.63;;;;;;;22.57;39.76;101911.84;5072573;28;20035;-47
2023/05/28 10:22:00;;;;;;;20.02;9.00;;;;;;;22.59;39.89;101909.47;5072418;28;20036;-47
2023/05/28 10:24:25;;;;;;;20.02;8.77;;;;;;;22.84;39.32;101917.75;5071729;28;20082;-49
2023/05/28 10:26:53;;;;;;;17.77;8.65;;;;;;;23.10;39.36;101907.88;5072364;28;20024;-49
2023/05/28 10:29:18;;;;;;;18.63;8.85;;;;;;;23.10;39.38;101908.69;5072181;28;20060;-49
2023/05/28 10:31:44;;;;;;;18.17;8.48;;;;;;;23.17;38.01;101922.16;5072247;28;20067;-50
2023/05/28 10:34:17;;;;;;;19.88;8.80;;;;;;;23.22;38.30;101904.97;5070453;28;20043;-46
2023/05/28 10:36:54;;;;;;;18.88;8.45;;;;;;;23.17;37.43;101917.31;5072205;28;20480;-48
2023/05/28 10:39:20;;;;;;;18.48;8.98;;;;;;;22.96;38.50;101920.47;5072526;28;20029;-48
2023/05/28 10:41:45;;;;;;;17.55;8.40;;;;;;;23.08;38.30;101916.72;5071017;28;20415;-47
2023/05/28 10:44:11;;;;;;;21.25;9.15;;;;;;;23.16;39.26;101912.06;5071932;28;20024;-49
2023/05/28 10:46:40;;;;;;;19.40;9.00;;;;;;;23.51;39.87;101914.91;5072170;28;20028;-47
2023/05/28 10:49:12;;;;;;;20.40;9.02;;;;;;;23.40;39.63;101924.31;5071227;28;20040;-50
2023/05/28 10:51:46;;;;;;;20.10;8.95;;;;;;;23.32;37.79;101931.81;5072266;28;20086;-48
2023/05/28 10:54:15;;;;;;;18.15;8.32;;;;;;;23.15;35.97;101924.53;5071519;28;20029;-53
2023/05/28 10:57:07;;;;;;;19.75;8.82;;;;;;;23.24;36.42;101927.19;5068345;28;20155;-49
2023/05/28 10:59:52;;;;;;;22.00;9.23;;;;;;;23.15;37.74;101928.16;5071697;28;20052;-49
2023/05/28 11:02:25;;;;;;;19.30;9.20;;;;;;;23.01;37.62;101928.63;5071698;28;20041;-48
2023/05/28 11:05:00;;;;;;;21.10;9.10;;;;;;;23.08;37.76;101919.53;5071880;28;20035;-49
2023/05/28 11:07:31;;;;;;;17.23;8.25;;;;;;;23.17;37.31;101922.97;5071748;28;20033;-51
2023/05/28 11:09:57;;;;;;;20.50;8.45;;;;;;;23.15;37.85;101922.50;5071957;28;20028;-50